sensor_id;sensor_type;location;lat;lon;timestamp;P1;durP1;ratioP1;P2;durP2;ratioP2
21822;SDS011;11074;48.596;9.238;2023-06-19T00:02:20;6.95;;;6.25;;
21822;SDS011;11074;48.596;9.238;2023-06-19T00:04:47;7.38;;;6.53;;
21822;SDS011;11074;48.596;9.238;2023-06-19T00:07:12;6.72;;;6.03;;
21822;SDS011;11074;48.596;9.238;2023-06-19T00:09:38;7.53;;;6.70;;
21822;SDS011;11074;48.596;9.238;2023-06-19T00:12:04;7.18;;;6.38;;
21822;SDS011;11074;48.596;9.238;2023-06-19T00:14:30;8.90;;;7.00;;
21822;SDS011;11074;48.596;9.238;2023-06-19T00:16:56;9.27;;;6.63;;
21822;SDS011;11074;48.596;9.238;2023-06-19T00:19:22;8.38;;;6.93;;
21822;SDS011;11074;48.596;9.238;2023-06-19T00:21:48;7.40;;;6.60;;
21822;SDS011;11074;48.596;9.238;2023-06-19T00:24:13;8.68;;;6.70;;
21822;SDS011;11074;48.596;9.238;2023-06-19T00:26:39;8.70;;;6.65;;
21822;SDS011;11074;48.596;9.238;2023-06-19T00:29:05;7.90;;;6.90;;
21822;SDS011;11074;48.596;9.238;2023-06-19T00:31:32;8.10;;;6.80;;
21822;SDS011;11074;48.596;9.238;2023-06-19T00:33:57;6.95;;;6.25;;
21822;SDS011;11074;48.596;9.238;2023-06-19T00:36:23;7.68;;;6.60;;
21822;SDS011;11074;48.596;9.238;2023-06-19T00:38:51;7.65;;;6.88;;
21822;SDS011;11074;48.596;9.238;2023-06-19T00:41:17;7.22;;;6.25;;
21822;SDS011;11074;48.596;9.238;2023-06-19T00:43:43;8.02;;;6.47;;
21822;SDS011;11074;48.596;9.238;2023-06-19T00:46:09;9.45;;;6.93;;
21822;SDS011;11074;48.596;9.238;2023-06-19T00:48:36;8.32;;;6.60;;
21822;SDS011;11074;48.596;9.238;2023-06-19T00:51:03;10.05;;;6.90;;
21822;SDS011;11074;48.596;9.238;2023-06-19T00:53:29;7.95;;;7.10;;
21822;SDS011;11074;48.596;9.238;2023-06-19T00:55:58;9.05;;;6.57;;
21822;SDS011;11074;48.596;9.238;2023-06-19T00:58:25;11.10;;;6.53;;
21822;SDS011;11074;48.596;9.238;2023-06-19T01:00:51;9.13;;;6.70;;
21822;SDS011;11074;48.596;9.238;2023-06-19T01:03:18;9.77;;;6.90;;
21822;SDS011;11074;48.596;9.238;2023-06-19T01:05:44;8.52;;;6.78;;
21822;SDS011;11074;48.596;9.238;2023-06-19T01:11:52;7.38;;;6.57;;
21822;SDS011;11074;48.596;9.238;2023-06-19T01:14:46;7.63;;;6.75;;
21822;SDS011;11074;48.596;9.238;2023-06-19T01:17:23;8.77;;;7.13;;
21822;SDS011;11074;48.596;9.238;2023-06-19T01:19:51;9.43;;;6.88;;
21822;SDS011;11074;48.596;9.238;2023-06-19T01:22:27;8.88;;;7.75;;
21822;SDS011;11074;48.596;9.238;2023-06-19T01:24:55;8.00;;;6.63;;
21822;SDS011;11074;48.596;9.238;2023-06-19T01:27:21;8.23;;;6.40;;
21822;SDS011;11074;48.596;9.238;2023-06-19T01:29:50;8.18;;;6.80;;
21822;SDS011;11074;48.596;9.238;2023-06-19T01:32:20;8.10;;;6.65;;
21822;SDS011;11074;48.596;9.238;2023-06-19T01:34:56;9.48;;;7.10;;
21822;SDS011;11074;48.596;9.238;2023-06-19T01:37:24;7.47;;;6.72;;
21822;SDS011;11074;48.596;9.238;2023-06-19T01:39:56;9.07;;;7.25;;
21822;SDS011;11074;48.596;9.238;2023-06-19T01:42:25;8.07;;;7.10;;
21822;SDS011;11074;48.596;9.238;2023-06-19T01:44:51;9.23;;;7.07;;
21822;SDS011;11074;48.596;9.238;2023-06-19T01:47:19;7.78;;;6.97;;
21822;SDS011;11074;48.596;9.238;2023-06-19T01:49:46;9.50;;;7.03;;
21822;SDS011;11074;48.596;9.238;2023-06-19T01:52:12;8.80;;;6.70;;
21822;SDS011;11074;48.596;9.238;2023-06-19T01:54:38;7.85;;;7.05;;
21822;SDS011;11074;48.596;9.238;2023-06-19T01:57:04;8.23;;;6.63;;
21822;SDS011;11074;48.596;9.238;2023-06-19T01:59:31;7.00;;;6.30;;
21822;SDS011;11074;48.596;9.238;2023-06-19T02:01:56;7.47;;;6.68;;
21822;SDS011;11074;48.596;9.238;2023-06-19T02:04:22;7.53;;;6.18;;
21822;SDS011;11074;48.596;9.238;2023-06-19T02:06:48;7.18;;;6.43;;
21822;SDS011;11074;48.596;9.238;2023-06-19T02:09:13;6.93;;;6.22;;
21822;SDS011;11074;48.596;9.238;2023-06-19T02:11:39;8.30;;;6.80;;
21822;SDS011;11074;48.596;9.238;2023-06-19T02:14:05;9.45;;;6.70;;
21822;SDS011;11074;48.596;9.238;2023-06-19T02:16:30;9.07;;;6.90;;
21822;SDS011;11074;48.596;9.238;2023-06-19T02:18:56;7.90;;;6.63;;
21822;SDS011;11074;48.596;9.238;2023-06-19T02:21:22;7.00;;;6.30;;
21822;SDS011;11074;48.596;9.238;2023-06-19T02:23:48;9.57;;;7.18;;
21822;SDS011;11074;48.596;9.238;2023-06-19T02:26:15;9.23;;;6.88;;
21822;SDS011;11074;48.596;9.238;2023-06-19T02:28:40;8.35;;;6.88;;
21822;SDS011;11074;48.596;9.238;2023-06-19T02:31:06;7.75;;;6.60;;
21822;SDS011;11074;48.596;9.238;2023-06-19T02:33:31;10.45;;;6.70;;
21822;SDS011;11074;48.596;9.238;2023-06-19T02:35:57;7.28;;;5.93;;
21822;SDS011;11074;48.596;9.238;2023-06-19T02:38:24;11.05;;;6.40;;
21822;SDS011;11074;48.596;9.238;2023-06-19T02:40:55;11.23;;;6.47;;
21822;SDS011;11074;48.596;9.238;2023-06-19T02:43:26;7.80;;;6.07;;
21822;SDS011;11074;48.596;9.238;2023-06-19T02:45:52;7.13;;;5.70;;
21822;SDS011;11074;48.596;9.238;2023-06-19T02:48:17;7.38;;;6.22;;
21822;SDS011;11074;48.596;9.238;2023-06-19T02:50:44;7.25;;;6.47;;
21822;SDS011;11074;48.596;9.238;2023-06-19T02:53:10;7.95;;;6.05;;
21822;SDS011;11074;48.596;9.238;2023-06-19T02:55:36;7.47;;;6.28;;
21822;SDS011;11074;48.596;9.238;2023-06-19T02:58:01;7.93;;;5.97;;
21822;SDS011;11074;48.596;9.238;2023-06-19T03:00:28;7.10;;;5.88;;
21822;SDS011;11074;48.596;9.238;2023-06-19T03:02:54;7.60;;;6.10;;
21822;SDS011;11074;48.596;9.238;2023-06-19T03:05:19;7.10;;;6.35;;
21822;SDS011;11074;48.596;9.238;2023-06-19T03:07:45;6.60;;;5.55;;
21822;SDS011;11074;48.596;9.238;2023-06-19T03:10:10;6.72;;;6.03;;
21822;SDS011;11074;48.596;9.238;2023-06-19T03:12:36;10.52;;;6.50;;
21822;SDS011;11074;48.596;9.238;2023-06-19T03:15:02;7.38;;;5.95;;
21822;SDS011;11074;48.596;9.238;2023-06-19T03:17:28;9.48;;;5.45;;
21822;SDS011;11074;48.596;9.238;2023-06-19T03:19:53;6.55;;;5.82;;
21822;SDS011;11074;48.596;9.238;2023-06-19T03:22:19;8.48;;;5.68;;
21822;SDS011;11074;48.596;9.238;2023-06-19T03:24:46;8.23;;;5.60;;
21822;SDS011;11074;48.596;9.238;2023-06-19T03:27:12;6.63;;;5.22;;
21822;SDS011;11074;48.596;9.238;2023-06-19T03:29:37;6.22;;;5.50;;
21822;SDS011;11074;48.596;9.238;2023-06-19T03:32:03;6.40;;;5.15;;
21822;SDS011;11074;48.596;9.238;2023-06-19T03:34:29;6.03;;;5.40;;
21822;SDS011;11074;48.596;9.238;2023-06-19T03:36:55;8.18;;;5.97;;
21822;SDS011;11074;48.596;9.238;2023-06-19T03:39:21;7.10;;;5.72;;
21822;SDS011;11074;48.596;9.238;2023-06-19T03:41:46;7.80;;;5.47;;
21822;SDS011;11074;48.596;9.238;2023-06-19T03:44:12;8.55;;;5.22;;
21822;SDS011;11074;48.596;9.238;2023-06-19T03:46:37;7.00;;;5.72;;
21822;SDS011;11074;48.596;9.238;2023-06-19T03:49:06;5.90;;;4.93;;
21822;SDS011;11074;48.596;9.238;2023-06-19T03:51:34;6.43;;;5.43;;
21822;SDS011;11074;48.596;9.238;2023-06-19T03:54:00;5.78;;;5.15;;
21822;SDS011;11074;48.596;9.238;2023-06-19T03:56:25;5.75;;;5.10;;
21822;SDS011;11074;48.596;9.238;2023-06-19T03:58:52;7.47;;;5.22;;
21822;SDS011;11074;48.596;9.238;2023-06-19T04:01:18;6.57;;;5.55;;
21822;SDS011;11074;48.596;9.238;2023-06-19T04:03:43;6.20;;;5.15;;
21822;SDS011;11074;48.596;9.238;2023-06-19T04:06:09;5.65;;;4.72;;
21822;SDS011;11074;48.596;9.238;2023-06-19T04:08:35;7.18;;;4.95;;
21822;SDS011;11074;48.596;9.238;2023-06-19T04:11:01;7.75;;;5.30;;
21822;SDS011;11074;48.596;9.238;2023-06-19T04:13:26;7.72;;;5.00;;
21822;SDS011;11074;48.596;9.238;2023-06-19T04:15:52;5.53;;;4.75;;
21822;SDS011;11074;48.596;9.238;2023-06-19T04:18:18;5.18;;;4.47;;
21822;SDS011;11074;48.596;9.238;2023-06-19T04:20:43;6.18;;;4.30;;
21822;SDS011;11074;48.596;9.238;2023-06-19T04:23:09;4.22;;;3.83;;
21822;SDS011;11074;48.596;9.238;2023-06-19T04:25:37;6.15;;;3.78;;
21822;SDS011;11074;48.596;9.238;2023-06-19T04:28:02;4.55;;;4.05;;
21822;SDS011;11074;48.596;9.238;2023-06-19T04:30:29;4.78;;;4.00;;
21822;SDS011;11074;48.596;9.238;2023-06-19T04:32:56;4.30;;;3.78;;
21822;SDS011;11074;48.596;9.238;2023-06-19T04:35:24;4.30;;;3.38;;
21822;SDS011;11074;48.596;9.238;2023-06-19T04:37:49;4.55;;;3.40;;
21822;SDS011;11074;48.596;9.238;2023-06-19T04:40:16;4.32;;;3.38;;
21822;SDS011;11074;48.596;9.238;2023-06-19T04:42:41;4.68;;;3.42;;
21822;SDS011;11074;48.596;9.238;2023-06-19T04:45:10;5.13;;;3.67;;
21822;SDS011;11074;48.596;9.238;2023-06-19T04:47:36;4.38;;;3.47;;
21822;SDS011;11074;48.596;9.238;2023-06-19T04:50:04;4.03;;;3.42;;
21822;SDS011;11074;48.596;9.238;2023-06-19T04:52:32;4.45;;;3.47;;
21822;SDS011;11074;48.596;9.238;2023-06-19T04:54:58;4.88;;;3.35;;
21822;SDS011;11074;48.596;9.238;2023-06-19T04:57:23;3.80;;;3.30;;
21822;SDS011;11074;48.596;9.238;2023-06-19T04:59:49;5.75;;;3.42;;
21822;SDS011;11074;48.596;9.238;2023-06-19T05:02:15;6.15;;;3.42;;
21822;SDS011;11074;48.596;9.238;2023-06-19T05:04:40;5.85;;;3.70;;
21822;SDS011;11074;48.596;9.238;2023-06-19T05:07:07;5.32;;;3.80;;
21822;SDS011;11074;48.596;9.238;2023-06-19T05:09:35;10.07;;;3.58;;
21822;SDS011;11074;48.596;9.238;2023-06-19T05:12:01;4.90;;;3.92;;
21822;SDS011;11074;48.596;9.238;2023-06-19T05:14:26;5.25;;;3.60;;
21822;SDS011;11074;48.596;9.238;2023-06-19T05:16:53;5.50;;;3.47;;
21822;SDS011;11074;48.596;9.238;2023-06-19T05:19:18;5.57;;;3.83;;
21822;SDS011;11074;48.596;9.238;2023-06-19T05:21:44;5.75;;;3.50;;
21822;SDS011;11074;48.596;9.238;2023-06-19T05:24:10;6.20;;;3.63;;
21822;SDS011;11074;48.596;9.238;2023-06-19T05:26:35;4.53;;;3.50;;
21822;SDS011;11074;48.596;9.238;2023-06-19T05:29:01;4.18;;;3.40;;
21822;SDS011;11074;48.596;9.238;2023-06-19T05:31:27;7.25;;;3.40;;
21822;SDS011;11074;48.596;9.238;2023-06-19T05:33:52;4.50;;;3.60;;
21822;SDS011;11074;48.596;9.238;2023-06-19T05:36:18;5.70;;;3.45;;
21822;SDS011;11074;48.596;9.238;2023-06-19T05:38:43;6.93;;;3.30;;
21822;SDS011;11074;48.596;9.238;2023-06-19T05:41:09;4.70;;;3.45;;
21822;SDS011;11074;48.596;9.238;2023-06-19T05:43:37;3.90;;;3.22;;
21822;SDS011;11074;48.596;9.238;2023-06-19T05:46:03;4.78;;;3.40;;
21822;SDS011;11074;48.596;9.238;2023-06-19T05:48:29;3.88;;;3.30;;
21822;SDS011;11074;48.596;9.238;2023-06-19T05:50:54;4.50;;;3.53;;
21822;SDS011;11074;48.596;9.238;2023-06-19T05:53:20;4.20;;;3.35;;
21822;SDS011;11074;48.596;9.238;2023-06-19T05:55:46;3.88;;;3.20;;
21822;SDS011;11074;48.596;9.238;2023-06-19T05:58:11;4.00;;;3.00;;
21822;SDS011;11074;48.596;9.238;2023-06-19T06:00:37;3.60;;;2.97;;
21822;SDS011;11074;48.596;9.238;2023-06-19T06:03:03;5.35;;;3.33;;
21822;SDS011;11074;48.596;9.238;2023-06-19T06:05:29;5.07;;;3.75;;
21822;SDS011;11074;48.596;9.238;2023-06-19T06:07:54;4.15;;;3.30;;
21822;SDS011;11074;48.596;9.238;2023-06-19T06:10:21;4.43;;;3.08;;
21822;SDS011;11074;48.596;9.238;2023-06-19T06:12:48;4.22;;;3.15;;
21822;SDS011;11074;48.596;9.238;2023-06-19T06:15:15;4.15;;;3.00;;
21822;SDS011;11074;48.596;9.238;2023-06-19T06:17:41;5.28;;;3.33;;
21822;SDS011;11074;48.596;9.238;2023-06-19T06:20:07;3.85;;;2.90;;
21822;SDS011;11074;48.596;9.238;2023-06-19T06:22:37;4.05;;;3.10;;
21822;SDS011;11074;48.596;9.238;2023-06-19T06:25:07;4.55;;;3.22;;
21822;SDS011;11074;48.596;9.238;2023-06-19T06:27:37;3.63;;;3.20;;
21822;SDS011;11074;48.596;9.238;2023-06-19T06:30:02;4.28;;;3.30;;
21822;SDS011;11074;48.596;9.238;2023-06-19T06:32:29;3.40;;;2.60;;
21822;SDS011;11074;48.596;9.238;2023-06-19T06:34:56;3.45;;;2.80;;
21822;SDS011;11074;48.596;9.238;2023-06-19T06:37:23;4.85;;;3.10;;
21822;SDS011;11074;48.596;9.238;2023-06-19T06:39:49;2.90;;;2.45;;
21822;SDS011;11074;48.596;9.238;2023-06-19T06:42:16;4.30;;;2.78;;
21822;SDS011;11074;48.596;9.238;2023-06-19T06:44:42;4.03;;;2.47;;
21822;SDS011;11074;48.596;9.238;2023-06-19T06:47:08;3.30;;;2.70;;
21822;SDS011;11074;48.596;9.238;2023-06-19T06:49:33;4.95;;;2.55;;
21822;SDS011;11074;48.596;9.238;2023-06-19T06:52:01;4.35;;;2.45;;
21822;SDS011;11074;48.596;9.238;2023-06-19T06:54:31;3.58;;;2.67;;
21822;SDS011;11074;48.596;9.238;2023-06-19T06:56:57;3.38;;;2.72;;
21822;SDS011;11074;48.596;9.238;2023-06-19T06:59:24;4.28;;;3.15;;
21822;SDS011;11074;48.596;9.238;2023-06-19T07:01:52;3.25;;;2.22;;
21822;SDS011;11074;48.596;9.238;2023-06-19T07:04:18;3.40;;;2.78;;
21822;SDS011;11074;48.596;9.238;2023-06-19T07:06:44;3.17;;;2.65;;
21822;SDS011;11074;48.596;9.238;2023-06-19T07:09:10;2.92;;;2.60;;
21822;SDS011;11074;48.596;9.238;2023-06-19T07:11:36;3.25;;;2.80;;
21822;SDS011;11074;48.596;9.238;2023-06-19T07:14:02;3.05;;;2.55;;
21822;SDS011;11074;48.596;9.238;2023-06-19T07:16:27;3.95;;;2.63;;
21822;SDS011;11074;48.596;9.238;2023-06-19T07:18:54;3.38;;;2.60;;
21822;SDS011;11074;48.596;9.238;2023-06-19T07:21:19;3.10;;;2.38;;
21822;SDS011;11074;48.596;9.238;2023-06-19T07:23:45;3.65;;;2.50;;
21822;SDS011;11074;48.596;9.238;2023-06-19T07:26:14;5.07;;;2.70;;
21822;SDS011;11074;48.596;9.238;2023-06-19T07:28:41;4.43;;;2.60;;
21822;SDS011;11074;48.596;9.238;2023-06-19T07:31:07;3.47;;;2.55;;
21822;SDS011;11074;48.596;9.238;2023-06-19T07:33:33;4.93;;;3.35;;
21822;SDS011;11074;48.596;9.238;2023-06-19T07:36:00;3.60;;;2.88;;
21822;SDS011;11074;48.596;9.238;2023-06-19T07:38:27;4.05;;;2.75;;
21822;SDS011;11074;48.596;9.238;2023-06-19T07:40:53;3.63;;;2.72;;
21822;SDS011;11074;48.596;9.238;2023-06-19T07:43:19;4.43;;;2.80;;
21822;SDS011;11074;48.596;9.238;2023-06-19T07:45:47;3.72;;;2.88;;
21822;SDS011;11074;48.596;9.238;2023-06-19T07:48:13;3.45;;;2.70;;
21822;SDS011;11074;48.596;9.238;2023-06-19T07:50:39;5.00;;;2.70;;
21822;SDS011;11074;48.596;9.238;2023-06-19T07:53:05;3.85;;;2.80;;
21822;SDS011;11074;48.596;9.238;2023-06-19T07:55:30;2.85;;;2.50;;
21822;SDS011;11074;48.596;9.238;2023-06-19T07:58:00;3.63;;;3.00;;
21822;SDS011;11074;48.596;9.238;2023-06-19T08:00:26;3.58;;;2.88;;
21822;SDS011;11074;48.596;9.238;2023-06-19T08:02:51;3.60;;;3.25;;
21822;SDS011;11074;48.596;9.238;2023-06-19T08:05:17;3.90;;;2.97;;
21822;SDS011;11074;48.596;9.238;2023-06-19T08:07:43;3.60;;;2.83;;
21822;SDS011;11074;48.596;9.238;2023-06-19T08:10:09;3.78;;;2.88;;
21822;SDS011;11074;48.596;9.238;2023-06-19T08:12:35;2.95;;;2.63;;
21822;SDS011;11074;48.596;9.238;2023-06-19T08:15:01;3.65;;;2.83;;
21822;SDS011;11074;48.596;9.238;2023-06-19T08:17:27;2.80;;;2.50;;
21822;SDS011;11074;48.596;9.238;2023-06-19T08:19:53;3.85;;;3.00;;
21822;SDS011;11074;48.596;9.238;2023-06-19T08:22:18;5.22;;;3.20;;
21822;SDS011;11074;48.596;9.238;2023-06-19T08:24:44;4.47;;;2.78;;
21822;SDS011;11074;48.596;9.238;2023-06-19T08:27:10;6.43;;;3.47;;
21822;SDS011;11074;48.596;9.238;2023-06-19T08:29:35;6.78;;;3.05;;
21822;SDS011;11074;48.596;9.238;2023-06-19T08:32:01;3.75;;;2.92;;
21822;SDS011;11074;48.596;9.238;2023-06-19T08:34:27;4.55;;;2.95;;
21822;SDS011;11074;48.596;9.238;2023-06-19T08:36:53;4.38;;;3.10;;
21822;SDS011;11074;48.596;9.238;2023-06-19T08:39:18;3.40;;;3.10;;
21822;SDS011;11074;48.596;9.238;2023-06-19T08:41:47;3.70;;;3.25;;
21822;SDS011;11074;48.596;9.238;2023-06-19T08:44:13;4.80;;;3.30;;
21822;SDS011;11074;48.596;9.238;2023-06-19T08:46:38;3.92;;;3.30;;
21822;SDS011;11074;48.596;9.238;2023-06-19T08:49:07;4.75;;;3.00;;
21822;SDS011;11074;48.596;9.238;2023-06-19T08:51:35;3.92;;;3.30;;
21822;SDS011;11074;48.596;9.238;2023-06-19T08:54:02;5.35;;;2.85;;
21822;SDS011;11074;48.596;9.238;2023-06-19T08:56:31;4.20;;;3.20;;
21822;SDS011;11074;48.596;9.238;2023-06-19T08:59:12;3.92;;;2.97;;
21822;SDS011;11074;48.596;9.238;2023-06-19T09:01:45;5.32;;;2.88;;
21822;SDS011;11074;48.596;9.238;2023-06-19T09:04:23;3.40;;;3.00;;
21822;SDS011;11074;48.596;9.238;2023-06-19T09:06:58;6.25;;;3.08;;
21822;SDS011;11074;48.596;9.238;2023-06-19T09:09:28;4.90;;;3.00;;
21822;SDS011;11074;48.596;9.238;2023-06-19T09:12:05;3.10;;;2.65;;
21822;SDS011;11074;48.596;9.238;2023-06-19T09:14:45;5.70;;;3.00;;
21822;SDS011;11074;48.596;9.238;2023-06-19T09:17:20;3.53;;;2.88;;
21822;SDS011;11074;48.596;9.238;2023-06-19T09:19:47;3.22;;;2.83;;
21822;SDS011;11074;48.596;9.238;2023-06-19T09:22:16;3.83;;;2.95;;
21822;SDS011;11074;48.596;9.238;2023-06-19T09:24:45;3.58;;;2.70;;
21822;SDS011;11074;48.596;9.238;2023-06-19T09:27:13;4.93;;;2.92;;
21822;SDS011;11074;48.596;9.238;2023-06-19T09:29:44;3.42;;;2.85;;
21822;SDS011;11074;48.596;9.238;2023-06-19T09:34:47;5.18;;;3.30;;
21822;SDS011;11074;48.596;9.238;2023-06-19T09:37:16;3.35;;;2.70;;
21822;SDS011;11074;48.596;9.238;2023-06-19T09:40:07;3.30;;;2.00;;
21822;SDS011;11074;48.596;9.238;2023-06-19T09:42:42;2.22;;;1.92;;
21822;SDS011;11074;48.596;9.238;2023-06-19T09:45:10;2.40;;;1.90;;
21822;SDS011;11074;48.596;9.238;2023-06-19T09:47:44;2.42;;;1.83;;
21822;SDS011;11074;48.596;9.238;2023-06-19T09:50:12;3.83;;;1.60;;
21822;SDS011;11074;48.596;9.238;2023-06-19T09:52:41;3.10;;;1.67;;
21822;SDS011;11074;48.596;9.238;2023-06-19T09:55:08;3.05;;;1.70;;
21822;SDS011;11074;48.596;9.238;2023-06-19T09:57:39;3.30;;;1.70;;
21822;SDS011;11074;48.596;9.238;2023-06-19T10:00:08;1.75;;;1.60;;
21822;SDS011;11074;48.596;9.238;2023-06-19T10:02:37;5.35;;;1.55;;
21822;SDS011;11074;48.596;9.238;2023-06-19T10:05:05;1.67;;;1.30;;
21822;SDS011;11074;48.596;9.238;2023-06-19T10:07:34;2.90;;;1.40;;
21822;SDS011;11074;48.596;9.238;2023-06-19T10:10:04;3.65;;;1.67;;
21822;SDS011;11074;48.596;9.238;2023-06-19T10:15:18;3.30;;;1.70;;
21822;SDS011;11074;48.596;9.238;2023-06-19T10:17:46;2.67;;;1.25;;
21822;SDS011;11074;48.596;9.238;2023-06-19T10:23:06;1.73;;;1.35;;
21822;SDS011;11074;48.596;9.238;2023-06-19T10:28:29;1.45;;;1.30;;
21822;SDS011;11074;48.596;9.238;2023-06-19T10:33:29;2.28;;;1.58;;
21822;SDS011;11074;48.596;9.238;2023-06-19T10:35:58;1.58;;;1.45;;
21822;SDS011;11074;48.596;9.238;2023-06-19T10:38:41;2.10;;;1.50;;
21822;SDS011;11074;48.596;9.238;2023-06-19T10:41:30;2.50;;;1.77;;
21822;SDS011;11074;48.596;9.238;2023-06-19T10:43:57;3.72;;;1.73;;
21822;SDS011;11074;48.596;9.238;2023-06-19T10:46:30;2.17;;;1.90;;
21822;SDS011;11074;48.596;9.238;2023-06-19T10:49:04;1.90;;;1.70;;
21822;SDS011;11074;48.596;9.238;2023-06-19T10:51:35;2.28;;;1.77;;
21822;SDS011;11074;48.596;9.238;2023-06-19T10:54:09;2.63;;;2.00;;
21822;SDS011;11074;48.596;9.238;2023-06-19T10:56:37;2.22;;;1.95;;
21822;SDS011;11074;48.596;9.238;2023-06-19T10:59:03;2.20;;;1.83;;
21822;SDS011;11074;48.596;9.238;2023-06-19T11:01:42;3.42;;;1.90;;
21822;SDS011;11074;48.596;9.238;2023-06-19T11:04:11;3.08;;;2.00;;
21822;SDS011;11074;48.596;9.238;2023-06-19T11:06:40;3.28;;;2.30;;
21822;SDS011;11074;48.596;9.238;2023-06-19T11:09:09;2.70;;;2.10;;
21822;SDS011;11074;48.596;9.238;2023-06-19T11:11:40;3.70;;;2.40;;
21822;SDS011;11074;48.596;9.238;2023-06-19T11:14:10;2.70;;;2.25;;
21822;SDS011;11074;48.596;9.238;2023-06-19T11:16:38;2.90;;;2.50;;
21822;SDS011;11074;48.596;9.238;2023-06-19T11:19:07;3.22;;;2.50;;
21822;SDS011;11074;48.596;9.238;2023-06-19T11:21:35;2.90;;;2.45;;
21822;SDS011;11074;48.596;9.238;2023-06-19T11:24:03;2.67;;;2.20;;
21822;SDS011;11074;48.596;9.238;2023-06-19T11:26:37;3.72;;;2.22;;
21822;SDS011;11074;48.596;9.238;2023-06-19T11:31:50;3.03;;;2.20;;
21822;SDS011;11074;48.596;9.238;2023-06-19T11:34:18;4.05;;;2.40;;
21822;SDS011;11074;48.596;9.238;2023-06-19T11:36:45;3.47;;;2.33;;
21822;SDS011;11074;48.596;9.238;2023-06-19T11:39:11;3.33;;;2.22;;
21822;SDS011;11074;48.596;9.238;2023-06-19T11:41:38;3.92;;;2.10;;
21822;SDS011;11074;48.596;9.238;2023-06-19T11:44:07;3.45;;;2.38;;
21822;SDS011;11074;48.596;9.238;2023-06-19T11:46:36;4.35;;;2.75;;
21822;SDS011;11074;48.596;9.238;2023-06-19T11:49:13;4.60;;;2.28;;
21822;SDS011;11074;48.596;9.238;2023-06-19T11:51:44;3.25;;;2.58;;
21822;SDS011;11074;48.596;9.238;2023-06-19T11:54:12;2.58;;;2.38;;
21822;SDS011;11074;48.596;9.238;2023-06-19T11:56:45;2.70;;;2.50;;
21822;SDS011;11074;48.596;9.238;2023-06-19T11:59:15;4.60;;;2.50;;
21822;SDS011;11074;48.596;9.238;2023-06-19T12:01:40;3.63;;;2.47;;
21822;SDS011;11074;48.596;9.238;2023-06-19T12:04:06;3.00;;;2.70;;
21822;SDS011;11074;48.596;9.238;2023-06-19T12:06:32;2.83;;;2.28;;
21822;SDS011;11074;48.596;9.238;2023-06-19T12:09:00;5.60;;;2.67;;
21822;SDS011;11074;48.596;9.238;2023-06-19T12:11:28;3.00;;;2.40;;
21822;SDS011;11074;48.596;9.238;2023-06-19T12:13:54;3.00;;;2.60;;
21822;SDS011;11074;48.596;9.238;2023-06-19T12:16:22;3.50;;;2.35;;
21822;SDS011;11074;48.596;9.238;2023-06-19T12:18:48;3.53;;;2.80;;
21822;SDS011;11074;48.596;9.238;2023-06-19T12:21:13;5.18;;;3.30;;
21822;SDS011;11074;48.596;9.238;2023-06-19T12:23:39;3.25;;;2.40;;
21822;SDS011;11074;48.596;9.238;2023-06-19T12:26:05;2.97;;;2.58;;
21822;SDS011;11074;48.596;9.238;2023-06-19T12:28:31;2.75;;;2.40;;
21822;SDS011;11074;48.596;9.238;2023-06-19T12:30:56;3.75;;;2.55;;
21822;SDS011;11074;48.596;9.238;2023-06-19T12:33:23;4.03;;;2.47;;
21822;SDS011;11074;48.596;9.238;2023-06-19T12:35:49;3.28;;;2.65;;
21822;SDS011;11074;48.596;9.238;2023-06-19T12:38:14;4.13;;;2.35;;
21822;SDS011;11074;48.596;9.238;2023-06-19T12:40:40;3.70;;;2.30;;
21822;SDS011;11074;48.596;9.238;2023-06-19T12:43:06;4.35;;;2.67;;
21822;SDS011;11074;48.596;9.238;2023-06-19T12:45:32;2.78;;;2.38;;
21822;SDS011;11074;48.596;9.238;2023-06-19T12:47:58;2.75;;;2.40;;
21822;SDS011;11074;48.596;9.238;2023-06-19T12:50:24;2.90;;;2.60;;
21822;SDS011;11074;48.596;9.238;2023-06-19T12:52:50;4.25;;;3.00;;
21822;SDS011;11074;48.596;9.238;2023-06-19T12:55:16;3.53;;;2.63;;
21822;SDS011;11074;48.596;9.238;2023-06-19T12:57:42;3.55;;;2.60;;
21822;SDS011;11074;48.596;9.238;2023-06-19T13:00:10;2.90;;;2.60;;
21822;SDS011;11074;48.596;9.238;2023-06-19T13:02:37;4.32;;;2.60;;
21822;SDS011;11074;48.596;9.238;2023-06-19T13:05:05;5.78;;;3.00;;
21822;SDS011;11074;48.596;9.238;2023-06-19T13:07:32;2.97;;;2.50;;
21822;SDS011;11074;48.596;9.238;2023-06-19T13:09:58;2.85;;;2.40;;
21822;SDS011;11074;48.596;9.238;2023-06-19T13:12:23;3.10;;;2.63;;
21822;SDS011;11074;48.596;9.238;2023-06-19T13:14:49;4.55;;;2.50;;
21822;SDS011;11074;48.596;9.238;2023-06-19T13:17:15;3.10;;;2.47;;
21822;SDS011;11074;48.596;9.238;2023-06-19T13:19:41;3.30;;;2.60;;
21822;SDS011;11074;48.596;9.238;2023-06-19T13:22:06;4.50;;;2.58;;
21822;SDS011;11074;48.596;9.238;2023-06-19T13:24:32;4.45;;;2.30;;
21822;SDS011;11074;48.596;9.238;2023-06-19T13:26:58;4.28;;;2.58;;
21822;SDS011;11074;48.596;9.238;2023-06-19T13:29:23;3.53;;;2.58;;
21822;SDS011;11074;48.596;9.238;2023-06-19T13:31:49;2.58;;;2.35;;
21822;SDS011;11074;48.596;9.238;2023-06-19T13:34:19;2.90;;;2.33;;
21822;SDS011;11074;48.596;9.238;2023-06-19T13:36:47;2.75;;;2.33;;
21822;SDS011;11074;48.596;9.238;2023-06-19T13:39:16;2.95;;;2.30;;
21822;SDS011;11074;48.596;9.238;2023-06-19T13:41:44;2.90;;;2.50;;
21822;SDS011;11074;48.596;9.238;2023-06-19T13:44:11;3.08;;;2.60;;
21822;SDS011;11074;48.596;9.238;2023-06-19T13:46:37;3.00;;;2.70;;
21822;SDS011;11074;48.596;9.238;2023-06-19T13:49:03;2.50;;;2.30;;
21822;SDS011;11074;48.596;9.238;2023-06-19T13:51:33;4.43;;;2.40;;
21822;SDS011;11074;48.596;9.238;2023-06-19T13:53:59;3.00;;;2.70;;
21822;SDS011;11074;48.596;9.238;2023-06-19T13:56:24;4.43;;;2.88;;
21822;SDS011;11074;48.596;9.238;2023-06-19T13:58:50;4.72;;;2.90;;
21822;SDS011;11074;48.596;9.238;2023-06-19T14:01:20;3.47;;;2.67;;
21822;SDS011;11074;48.596;9.238;2023-06-19T14:03:50;2.95;;;2.65;;
21822;SDS011;11074;48.596;9.238;2023-06-19T14:06:16;2.58;;;2.38;;
21822;SDS011;11074;48.596;9.238;2023-06-19T14:08:42;4.55;;;2.63;;
21822;SDS011;11074;48.596;9.238;2023-06-19T14:11:09;6.75;;;2.70;;
21822;SDS011;11074;48.596;9.238;2023-06-19T14:13:35;3.25;;;2.40;;
21822;SDS011;11074;48.596;9.238;2023-06-19T14:16:01;2.97;;;2.50;;
21822;SDS011;11074;48.596;9.238;2023-06-19T14:18:27;2.90;;;2.47;;
21822;SDS011;11074;48.596;9.238;2023-06-19T14:20:52;3.35;;;2.65;;
21822;SDS011;11074;48.596;9.238;2023-06-19T14:23:18;3.33;;;3.00;;
21822;SDS011;11074;48.596;9.238;2023-06-19T14:25:44;5.53;;;2.53;;
21822;SDS011;11074;48.596;9.238;2023-06-19T14:28:09;3.13;;;2.80;;
21822;SDS011;11074;48.596;9.238;2023-06-19T14:30:35;4.60;;;2.50;;
21822;SDS011;11074;48.596;9.238;2023-06-19T14:33:01;3.28;;;2.70;;
21822;SDS011;11074;48.596;9.238;2023-06-19T14:35:26;3.90;;;2.78;;
21822;SDS011;11074;48.596;9.238;2023-06-19T14:37:52;3.53;;;2.90;;
21822;SDS011;11074;48.596;9.238;2023-06-19T14:40:18;2.90;;;2.60;;
21822;SDS011;11074;48.596;9.238;2023-06-19T14:42:44;3.15;;;2.58;;
21822;SDS011;11074;48.596;9.238;2023-06-19T14:45:09;2.78;;;2.50;;
21822;SDS011;11074;48.596;9.238;2023-06-19T14:47:35;3.63;;;2.70;;
21822;SDS011;11074;48.596;9.238;2023-06-19T14:50:01;3.90;;;3.00;;
21822;SDS011;11074;48.596;9.238;2023-06-19T14:52:27;3.40;;;3.10;;
21822;SDS011;11074;48.596;9.238;2023-06-19T14:54:53;3.80;;;2.80;;
21822;SDS011;11074;48.596;9.238;2023-06-19T14:57:19;3.60;;;2.88;;
21822;SDS011;11074;48.596;9.238;2023-06-19T14:59:45;3.63;;;2.70;;
21822;SDS011;11074;48.596;9.238;2023-06-19T15:02:10;3.63;;;3.03;;
21822;SDS011;11074;48.596;9.238;2023-06-19T15:04:36;3.42;;;3.08;;
21822;SDS011;11074;48.596;9.238;2023-06-19T15:07:06;4.13;;;2.83;;
21822;SDS011;11074;48.596;9.238;2023-06-19T15:09:31;4.95;;;3.20;;